createdAt,value
2022-09-04T00:00:29.728Z,90.20
2022-09-04T00:03:15.603Z,89.20
2022-09-04T00:05:42.185Z,88.80
2022-09-04T00:08:24.862Z,88.80
2022-09-04T00:10:57.334Z,88.70
2022-09-04T00:13:27.589Z,88.40
2022-09-04T00:16:01.016Z,89.00
2022-09-04T00:18:43.464Z,89.50
2022-09-04T00:21:16.013Z,89.20
2022-09-04T00:23:45.526Z,88.60
2022-09-04T00:26:20.959Z,88.10
2022-09-04T00:28:49.612Z,88.30
2022-09-04T00:31:24.555Z,90.10
2022-09-04T00:33:54.357Z,90.10
2022-09-04T00:36:22.386Z,90.30
2022-09-04T00:38:55.192Z,90.60
2022-09-04T00:41:26.955Z,90.20
2022-09-04T00:44:11.846Z,90.10
2022-09-04T00:46:53.237Z,90.10
2022-09-04T00:49:36.559Z,90.10
2022-09-04T00:52:31.386Z,90.10
2022-09-04T00:55:09.471Z,90.10
2022-09-04T00:57:45.274Z,90.10
2022-09-04T01:00:16.517Z,90.10
2022-09-04T01:03:01.638Z,90.10
2022-09-04T01:05:47.129Z,90.10
2022-09-04T01:08:32.592Z,90.10
2022-09-04T01:11:17.683Z,90.00
2022-09-04T01:14:03.030Z,90.00
2022-09-04T01:16:35.755Z,90.00
2022-09-04T01:19:22.593Z,90.00
2022-09-04T01:22:07.920Z,90.00
2022-09-04T01:24:54.053Z,89.70
2022-09-04T01:27:36.944Z,88.60
2022-09-04T01:30:08.038Z,87.30
2022-09-04T01:32:53.329Z,85.80
2022-09-04T01:35:19.999Z,85.40
2022-09-04T01:38:06.383Z,85.20
2022-09-04T01:40:42.292Z,85.10
2022-09-04T01:43:11.346Z,85.00
2022-09-04T01:45:53.324Z,85.10
2022-09-04T01:48:23.005Z,85.50
2022-09-04T01:50:54.282Z,86.70
2022-09-04T01:53:25.152Z,88.30
2022-09-04T01:56:04.127Z,89.80
2022-09-04T01:58:37.217Z,89.90
2022-09-04T02:01:16.032Z,89.80
2022-09-04T02:03:56.504Z,89.80
2022-09-04T02:06:26.745Z,89.80
2022-09-04T02:09:10.842Z,89.80
2022-09-04T02:11:39.917Z,89.90
2022-09-04T02:14:21.128Z,89.90
2022-09-04T02:17:18.279Z,89.90
2022-09-04T02:19:53.954Z,89.90
2022-09-04T02:22:49.920Z,89.90
2022-09-04T02:25:22.379Z,89.80
2022-09-04T02:28:07.789Z,89.80
2022-09-04T02:30:40.093Z,88.90
2022-09-04T02:33:06.657Z,89.00
2022-09-04T02:35:44.575Z,89.60
2022-09-04T02:38:13.921Z,88.80
2022-09-04T02:40:59.351Z,88.30
2022-09-04T02:43:36.552Z,89.00
2022-09-04T02:46:07.441Z,89.00
2022-09-04T02:48:53.074Z,88.80
2022-09-04T02:51:20.744Z,88.70
2022-09-04T02:53:53.409Z,87.90
2022-09-04T02:56:23.013Z,88.10
2022-09-04T02:59:07.599Z,87.90
2022-09-04T03:02:03.998Z,88.40
2022-09-04T03:04:35.507Z,88.50
2022-09-04T03:07:02.273Z,89.50
2022-09-04T03:09:50.243Z,89.50
2022-09-04T03:12:30.366Z,89.50
2022-09-04T03:15:15.583Z,89.50
2022-09-04T03:17:47.603Z,89.50
2022-09-04T03:20:17.888Z,89.50
2022-09-04T03:22:56.612Z,89.50
2022-09-04T03:25:26.189Z,88.50
2022-09-04T03:27:52.822Z,87.50
2022-09-04T03:30:19.697Z,87.80
2022-09-04T03:32:52.460Z,88.20
2022-09-04T03:35:32.700Z,88.20
2022-09-04T03:38:04.113Z,87.50
2022-09-04T03:40:36.247Z,88.60
2022-09-04T03:43:23.083Z,88.60
2022-09-04T03:46:08.620Z,89.00
2022-09-04T03:48:35.320Z,89.30
2022-09-04T03:51:08.494Z,88.70
2022-09-04T03:53:35.032Z,89.10
2022-09-04T03:56:19.876Z,89.20
2022-09-04T03:58:46.425Z,88.60
2022-09-04T04:01:25.152Z,88.10
2022-09-04T04:04:09.106Z,87.80
2022-09-04T04:06:48.052Z,87.40
2022-09-04T04:09:24.462Z,86.60
2022-09-04T04:12:02.930Z,87.20
2022-09-04T04:14:37.569Z,88.00
2022-09-04T04:17:20.630Z,88.00
2022-09-04T04:20:04.037Z,87.80
2022-09-04T04:22:33.715Z,88.20
2022-09-04T04:25:09.406Z,88.40
2022-09-04T04:27:48.724Z,88.50
2022-09-04T04:30:18.918Z,89.10
2022-09-04T04:32:54.435Z,89.30
2022-09-04T04:35:35.559Z,88.40
2022-09-04T04:38:04.901Z,87.80
2022-09-04T04:40:50.312Z,88.70
2022-09-04T04:43:22.199Z,88.20
2022-09-04T04:45:59.539Z,87.70
2022-09-04T04:48:41.377Z,88.00
2022-09-04T04:51:07.917Z,89.30
2022-09-04T04:53:53.219Z,89.00
2022-09-04T04:56:28.127Z,89.40
2022-09-04T04:59:20.394Z,89.40
2022-09-04T05:02:04.722Z,89.50
2022-09-04T05:04:37.333Z,89.50
2022-09-04T05:07:11.040Z,88.60
2022-09-04T05:10:07.251Z,87.50
2022-09-04T05:13:03.291Z,87.00
2022-09-04T05:15:52.901Z,85.70
2022-09-04T05:18:43.460Z,86.00
2022-09-04T05:21:19.597Z,84.80
2022-09-04T05:24:05.052Z,84.40
2022-09-04T05:26:46.629Z,83.40
2022-09-04T05:29:19.383Z,83.20
2022-09-04T05:32:05.160Z,83.20
2022-09-04T05:34:57.356Z,83.10
2022-09-04T05:37:37.154Z,83.00
2022-09-04T05:40:07.549Z,82.70
2022-09-04T05:42:57.742Z,82.60
2022-09-04T05:45:24.399Z,81.80
2022-09-04T05:47:57.108Z,81.80
2022-09-04T05:50:42.504Z,81.80
2022-09-04T05:53:24.174Z,81.80
2022-09-04T05:55:58.742Z,81.80
2022-09-04T05:58:25.885Z,81.90
2022-09-04T06:01:13.477Z,81.90
2022-09-04T06:03:43.772Z,81.90
2022-09-04T06:06:14.072Z,79.40
2022-09-04T06:08:55.963Z,81.10
2022-09-04T06:11:22.533Z,81.40
2022-09-04T06:14:03.319Z,78.60
2022-09-04T06:16:47.842Z,75.10
2022-09-04T06:19:37.321Z,71.90
2022-09-04T06:22:23.960Z,67.40
2022-09-04T06:25:10.737Z,62.60
2022-09-04T06:27:46.156Z,53.60
2022-09-04T06:30:16.851Z,46.90
2022-09-04T06:32:49.788Z,48.90
2022-09-04T06:35:36.267Z,44.10
2022-09-04T06:38:02.794Z,42.50
2022-09-04T06:40:32.409Z,40.90
2022-09-04T06:43:17.327Z,40.00
2022-09-04T06:45:56.735Z,37.20
2022-09-04T06:48:29.142Z,30.20
2022-09-04T06:51:12.964Z,28.30
2022-09-04T06:53:42.725Z,26.80
2022-09-04T06:56:15.446Z,20.50
2022-09-04T06:58:53.052Z,18.70
2022-09-04T07:01:26.189Z,15.60
2022-09-04T07:04:11.726Z,10.70
2022-09-04T07:06:56.627Z,10.20
2022-09-04T07:09:26.232Z,3.30
2022-09-04T07:12:05.639Z,5.00
2022-09-04T07:14:42.360Z,4.50
2022-09-04T07:17:23.669Z,6.40
2022-09-04T07:19:53.329Z,8.50
2022-09-04T07:22:31.308Z,9.80
2022-09-04T07:25:07.305Z,9.70
2022-09-04T07:27:42.249Z,13.40
2022-09-04T07:30:09.791Z,11.50
2022-09-04T07:32:52.323Z,12.40
2022-09-04T07:35:21.810Z,10.10
2022-09-04T07:37:58.310Z,10.30
2022-09-04T07:40:27.857Z,6.30
2022-09-04T07:43:00.408Z,1.20
2022-09-04T07:45:33.894Z,1.00
2022-09-04T07:48:17.058Z,1.00
2022-09-04T07:51:03.649Z,1.00
2022-09-04T07:53:33.406Z,1.00
2022-09-04T07:56:18.083Z,1.00
2022-09-04T07:58:49.374Z,1.00
2022-09-04T08:01:31.051Z,1.00
2022-09-04T08:04:16.312Z,1.00
2022-09-04T08:06:51.508Z,1.00
2022-09-04T08:09:20.921Z,1.00
2022-09-04T08:11:48.446Z,1.00
2022-09-04T08:14:24.742Z,1.00
2022-09-04T08:17:10.194Z,1.00
2022-09-04T08:19:49.827Z,1.00
2022-09-04T08:22:28.447Z,1.00
2022-09-04T08:25:02.120Z,1.40
2022-09-04T08:27:50.380Z,1.00
2022-09-04T08:30:19.713Z,1.40
2022-09-04T08:32:58.581Z,1.00
2022-09-04T08:35:28.097Z,1.00
2022-09-04T08:38:12.817Z,1.00
2022-09-04T08:40:57.678Z,1.00
2022-09-04T08:43:39.252Z,1.00
2022-09-04T08:46:05.804Z,1.00
2022-09-04T08:48:56.251Z,1.00
2022-09-04T08:51:29.560Z,1.00
2022-09-04T08:54:14.808Z,1.00
2022-09-04T08:56:57.210Z,1.00
2022-09-04T08:59:29.660Z,1.00
2022-09-04T09:02:01.444Z,1.00
2022-09-04T09:04:43.807Z,1.00
2022-09-04T09:07:25.187Z,1.00
2022-09-04T09:10:10.504Z,1.00
2022-09-04T09:12:49.332Z,1.00
2022-09-04T09:15:22.421Z,1.00
2022-09-04T09:17:48.991Z,1.00
2022-09-04T09:20:27.607Z,1.00
2022-09-04T09:23:18.114Z,1.00
2022-09-04T09:25:50.894Z,1.00
2022-09-04T09:28:32.894Z,1.00
2022-09-04T09:31:08.568Z,1.00
2022-09-04T09:33:49.436Z,1.00
2022-09-04T09:36:20.158Z,1.00
2022-09-04T09:39:04.871Z,1.00
2022-09-04T09:41:43.567Z,1.00
2022-09-04T09:44:12.932Z,1.00
2022-09-04T09:47:01.649Z,1.00
2022-09-04T09:49:30.976Z,1.00
2022-09-04T09:52:15.073Z,1.00
2022-09-04T09:54:55.281Z,1.00
2022-09-04T09:57:44.150Z,1.00
2022-09-04T10:00:21.269Z,1.00
2022-09-04T10:03:09.628Z,1.00
2022-09-04T10:05:54.792Z,1.00
2022-09-04T10:08:35.905Z,1.00
2022-09-04T10:11:23.603Z,1.00
2022-09-04T10:13:53.277Z,1.00
2022-09-04T10:16:22.883Z,1.00
2022-09-04T10:19:04.529Z,1.00
2022-09-04T10:21:31.100Z,1.00
2022-09-04T10:24:12.049Z,1.00
2022-09-04T10:26:55.961Z,1.00
2022-09-04T10:29:23.803Z,1.00
2022-09-04T10:32:09.078Z,1.00
2022-09-04T10:34:36.920Z,1.00
2022-09-04T10:37:09.344Z,1.00
2022-09-04T10:40:10.159Z,1.00
2022-09-04T10:42:55.549Z,1.00
2022-09-04T10:45:26.883Z,1.00
2022-09-04T10:47:56.367Z,1.00
2022-09-04T10:50:56.759Z,1.00
2022-09-04T10:53:35.681Z,1.00
2022-09-04T10:56:08.699Z,1.00
2022-09-04T10:59:15.694Z,1.00
2022-09-04T11:01:55.296Z,1.00
2022-09-04T11:04:22.518Z,1.00
2022-09-04T11:07:17.529Z,1.00
2022-09-04T11:09:56.717Z,1.00
2022-09-04T11:12:39.734Z,1.00
2022-09-04T11:15:21.741Z,1.00
2022-09-04T11:18:01.344Z,1.00
2022-09-04T11:20:46.349Z,1.00
2022-09-04T11:23:15.874Z,1.00
2022-09-04T11:25:59.392Z,1.00
2022-09-04T11:28:36.032Z,1.00
2022-09-04T11:31:23.523Z,1.00
2022-09-04T11:34:08.750Z,1.00
2022-09-04T11:36:54.320Z,1.00
2022-09-04T11:39:39.714Z,1.00
2022-09-04T11:42:27.646Z,1.00
2022-09-04T11:44:55.728Z,1.00
2022-09-04T11:47:29.852Z,1.00
2022-09-04T11:50:16.467Z,1.00
2022-09-04T11:52:46.691Z,1.00
2022-09-04T11:55:28.881Z,1.00
2022-09-04T11:57:58.231Z,1.00
2022-09-04T12:00:24.815Z,1.00
2022-09-04T12:02:54.451Z,1.00
2022-09-04T12:05:39.260Z,1.00
2022-09-04T12:08:41.291Z,1.00
2022-09-04T12:11:31.886Z,1.00
2022-09-04T12:14:16.604Z,1.00
2022-09-04T12:16:44.444Z,1.00
2022-09-04T12:19:18.354Z,1.00
2022-09-04T12:22:03.803Z,1.00
2022-09-04T12:24:48.878Z,1.00
2022-09-04T12:27:34.285Z,1.00
2022-09-04T12:30:10.425Z,1.00
2022-09-04T12:32:43.547Z,1.00
2022-09-04T12:35:32.070Z,1.00
2022-09-04T12:38:04.887Z,1.00
2022-09-04T12:40:54.751Z,1.00
2022-09-04T12:43:30.240Z,1.00
2022-09-04T12:46:06.177Z,1.00
2022-09-04T12:48:44.761Z,1.00
2022-09-04T12:51:14.488Z,1.00
2022-09-04T12:53:48.214Z,1.00
2022-09-04T12:56:57.163Z,1.00
2022-09-04T12:59:41.673Z,1.00
2022-09-04T13:02:08.318Z,1.00
2022-09-04T13:04:55.683Z,1.00
2022-09-04T13:07:28.117Z,1.00
2022-09-04T13:10:13.801Z,1.00
2022-09-04T13:12:49.624Z,1.00
2022-09-04T13:15:22.513Z,1.00
2022-09-04T13:17:55.213Z,1.00
2022-09-04T13:20:34.970Z,1.00
2022-09-04T13:23:28.500Z,1.00
2022-09-04T13:26:20.883Z,1.00
2022-09-04T13:29:08.550Z,1.00
2022-09-04T13:32:10.584Z,1.00
2022-09-04T13:35:01.832Z,1.00
2022-09-04T13:37:34.828Z,1.00
2022-09-04T13:40:01.431Z,1.00
2022-09-04T13:42:52.503Z,1.00
2022-09-04T13:45:23.604Z,1.00
2022-09-04T13:47:54.196Z,1.00
2022-09-04T13:50:25.551Z,1.00
2022-09-04T13:52:59.552Z,1.00
2022-09-04T13:55:34.646Z,1.00
2022-09-04T13:58:10.496Z,1.00
2022-09-04T14:00:45.791Z,1.00
2022-09-04T14:03:16.787Z,1.00
2022-09-04T14:05:43.813Z,1.00
2022-09-04T14:08:14.264Z,1.00
2022-09-04T14:10:40.817Z,1.00
2022-09-04T14:13:28.274Z,1.00
2022-09-04T14:16:01.854Z,1.00
2022-09-04T14:18:46.864Z,1.00
2022-09-04T14:21:35.911Z,1.00
2022-09-04T14:24:25.579Z,1.00
2022-09-04T14:26:58.026Z,1.00
2022-09-04T14:29:36.216Z,1.00
2022-09-04T14:32:10.235Z,1.00
2022-09-04T14:34:39.896Z,1.00
2022-09-04T14:37:13.560Z,1.00
2022-09-04T14:39:43.267Z,1.00
2022-09-04T14:42:12.682Z,1.00
2022-09-04T14:45:02.324Z,1.00
2022-09-04T14:47:42.189Z,1.00
2022-09-04T14:50:10.297Z,1.00
2022-09-04T14:52:41.794Z,1.00
2022-09-04T14:55:13.976Z,1.00
2022-09-04T14:57:47.649Z,1.00
2022-09-04T15:00:19.082Z,1.00
2022-09-04T15:02:45.660Z,1.00
2022-09-04T15:05:23.859Z,1.00
2022-09-04T15:07:52.405Z,1.00
2022-09-04T15:10:24.504Z,1.00
2022-09-04T15:13:09.458Z,1.00
2022-09-04T15:15:38.448Z,1.00
2022-09-04T15:18:17.929Z,1.00
2022-09-04T15:20:53.763Z,1.00
2022-09-04T15:23:31.326Z,1.00
2022-09-04T15:26:36.594Z,1.00
2022-09-04T15:29:14.277Z,1.00
2022-09-04T15:31:42.560Z,1.00
2022-09-04T15:34:12.200Z,1.00
2022-09-04T15:36:39.309Z,1.00
2022-09-04T15:39:09.165Z,1.00
2022-09-04T15:41:47.043Z,1.00
2022-09-04T15:44:20.633Z,1.00
2022-09-04T15:47:13.337Z,1.00
2022-09-04T15:49:52.572Z,1.00
2022-09-04T15:52:24.390Z,1.00
2022-09-04T15:54:55.037Z,1.00
2022-09-04T15:57:35.652Z,1.00
2022-09-04T16:00:04.226Z,1.00
2022-09-04T16:02:37.369Z,1.00
2022-09-04T16:05:05.543Z,1.00
2022-09-04T16:07:40.223Z,1.00
2022-09-04T16:10:18.457Z,1.00
2022-09-04T16:12:52.406Z,1.00
2022-09-04T16:15:42.113Z,1.00
2022-09-04T16:18:10.867Z,1.00
2022-09-04T16:20:49.729Z,1.00
2022-09-04T16:23:18.874Z,1.00
2022-09-04T16:25:49.853Z,1.00
2022-09-04T16:28:25.330Z,1.00
2022-09-04T16:30:59.871Z,1.00
2022-09-04T16:33:30.104Z,1.00
2022-09-04T16:36:03.727Z,1.00
2022-09-04T16:38:47.501Z,1.00
2022-09-04T16:41:17.724Z,1.00
2022-09-04T16:44:13.910Z,1.00
2022-09-04T16:46:44.480Z,1.00
2022-09-04T16:49:35.140Z,1.00
2022-09-04T16:52:21.166Z,1.00
2022-09-04T16:54:53.301Z,1.00
2022-09-04T16:57:21.482Z,1.00
2022-09-04T16:59:50.165Z,1.00
2022-09-04T17:02:20.520Z,1.00
2022-09-04T17:04:49.378Z,1.00
2022-09-04T17:07:31.035Z,1.00
2022-09-04T17:10:05.218Z,1.00
2022-09-04T17:12:40.918Z,1.00
2022-09-04T17:15:26.446Z,1.00
2022-09-04T17:17:54.369Z,1.00
2022-09-04T17:20:20.933Z,1.00
2022-09-04T17:28:48.751Z,1.00
2022-09-04T17:29:08.061Z,1.00
2022-09-04T17:29:13.161Z,1.00
2022-09-04T17:31:52.056Z,1.00
2022-09-04T17:38:49.287Z,1.10
2022-09-04T17:40:43.033Z,1.00
2022-09-04T17:41:42.545Z,4.00
2022-09-04T17:43:32.841Z,5.90
2022-09-04T17:46:02.428Z,7.10
2022-09-04T17:48:33.390Z,7.10
2022-09-04T17:51:04.305Z,7.80
2022-09-04T17:53:34.359Z,8.30
2022-09-04T17:56:11.939Z,8.80
2022-09-04T17:58:47.822Z,10.40
2022-09-04T18:01:17.359Z,11.50
2022-09-04T18:04:02.760Z,12.70
2022-09-04T18:06:47.061Z,13.30
2022-09-04T18:09:26.844Z,12.50
2022-09-04T18:12:00.873Z,13.30
2022-09-04T18:14:33.466Z,14.70
2022-09-04T18:17:16.133Z,15.00
2022-09-04T18:19:46.949Z,15.00
2022-09-04T18:22:33.464Z,16.30
2022-09-04T18:25:16.470Z,18.10
2022-09-04T18:27:50.027Z,19.30
2022-09-04T18:37:05.500Z,20.10
2022-09-04T18:37:20.407Z,21.10
2022-09-04T18:37:25.318Z,22.50
2022-09-04T18:39:12.842Z,23.80
2022-09-04T18:45:08.614Z,26.90
2022-09-04T18:50:33.353Z,28.20
2022-09-04T18:50:52.247Z,28.50
2022-09-04T18:51:12.544Z,29.90
2022-09-04T18:53:32.149Z,31.40
2022-09-04T18:56:01.729Z,33.10
2022-09-04T18:58:36.966Z,35.20
2022-09-04T19:01:10.636Z,35.80
2022-09-04T19:03:54.633Z,37.30
2022-09-04T19:06:31.688Z,37.30
2022-09-04T19:08:59.595Z,36.20
2022-09-04T19:11:31.497Z,34.00
2022-09-04T19:14:06.361Z,36.00
2022-09-04T19:16:40.995Z,37.40
2022-09-04T19:19:17.221Z,38.40
2022-09-04T19:21:58.351Z,40.20
2022-09-04T19:24:36.069Z,40.70
2022-09-04T19:27:02.591Z,42.20
2022-09-04T19:29:54.599Z,43.20
2022-09-04T19:32:29.886Z,43.80
2022-09-04T19:35:02.393Z,45.10
2022-09-04T19:41:00.222Z,47.60
2022-09-04T19:46:01.663Z,49.10
2022-09-04T19:46:03.738Z,48.10
2022-09-04T19:46:46.571Z,50.30
2022-09-04T19:52:17.800Z,52.90
2022-09-04T19:53:30.090Z,53.70
2022-09-04T19:55:23.466Z,52.90
2022-09-04T19:58:04.807Z,54.10
2022-09-04T20:00:43.588Z,54.20
2022-09-04T20:03:29.886Z,55.40
2022-09-04T20:06:05.217Z,55.00
2022-09-04T20:08:51.440Z,56.20
2022-09-04T20:11:28.644Z,58.10
2022-09-04T20:14:11.395Z,59.20
2022-09-04T20:16:49.612Z,59.20
2022-09-04T20:19:27.528Z,57.70
2022-09-04T20:21:57.301Z,56.90
2022-09-04T20:25:01.181Z,57.70
2022-09-04T20:27:34.891Z,58.20
2022-09-04T20:30:12.008Z,59.10
2022-09-04T20:33:04.615Z,59.00
2022-09-04T20:35:38.072Z,59.10
2022-09-04T20:38:23.557Z,58.90
2022-09-04T20:41:00.697Z,59.40
2022-09-04T20:43:36.260Z,60.30
2022-09-04T20:48:10.454Z,59.70
2022-09-04T20:52:52.414Z,60.30
2022-09-04T20:52:58.596Z,59.40
2022-09-04T20:54:55.735Z,62.00
2022-09-04T21:01:56.466Z,61.90
2022-09-04T21:03:24.519Z,62.00
2022-09-04T21:03:29.588Z,63.10
2022-09-04T21:06:06.824Z,63.50
2022-09-04T21:08:39.788Z,64.20
2022-09-04T21:11:39.641Z,64.60
2022-09-04T21:14:04.686Z,64.50
2022-09-04T21:16:49.031Z,64.70
2022-09-04T21:19:29.049Z,65.90
2022-09-04T21:22:05.386Z,67.00
2022-09-04T21:25:06.573Z,67.60
2022-09-04T21:27:52.069Z,67.50
2022-09-04T21:30:39.913Z,67.50
2022-09-04T21:33:28.311Z,67.40
2022-09-04T21:36:26.072Z,67.40
2022-09-04T21:38:57.192Z,67.30
2022-09-04T21:41:26.838Z,67.30
2022-09-04T21:44:12.552Z,67.20
2022-09-04T21:46:58.024Z,69.20
2022-09-04T21:49:35.359Z,70.60
2022-09-04T21:52:20.834Z,71.30
2022-09-04T21:55:09.899Z,71.00
2022-09-04T22:02:30.474Z,70.30
2022-09-04T22:02:38.664Z,70.10
2022-09-04T22:03:44.001Z,70.30
2022-09-04T22:06:42.486Z,71.10
2022-09-04T22:13:27.648Z,71.30
2022-09-04T22:13:42.610Z,71.20
2022-09-04T22:15:06.259Z,71.40
2022-09-04T22:17:41.677Z,72.60
2022-09-04T22:20:11.078Z,73.20
2022-09-04T22:22:53.709Z,73.50
2022-09-04T22:25:20.349Z,74.00
2022-09-04T22:28:08.523Z,73.80
2022-09-04T22:30:42.049Z,74.20
2022-09-04T22:33:08.633Z,74.20
2022-09-04T22:35:53.971Z,74.60
2022-09-04T22:38:33.082Z,75.40
2022-09-04T22:41:08.520Z,75.40
2022-09-04T22:43:46.672Z,75.40
2022-09-04T22:46:46.042Z,75.30
2022-09-04T22:49:32.039Z,75.30
2022-09-04T22:52:10.144Z,75.20
2022-09-04T22:54:36.924Z,75.20
2022-09-04T22:57:19.549Z,76.80
2022-09-04T23:00:05.523Z,75.70
2022-09-04T23:03:04.290Z,75.20
2022-09-04T23:05:18.789Z,75.40
2022-09-04T23:13:53.495Z,75.10
2022-09-04T23:13:53.899Z,75.10
2022-09-04T23:14:07.475Z,75.20
2022-09-04T23:16:34.859Z,75.00
2022-09-04T23:22:52.093Z,75.00
2022-09-04T23:26:33.593Z,74.90
2022-09-04T23:26:48.449Z,75.00
2022-09-04T23:27:55.697Z,75.90
2022-09-04T23:30:25.542Z,77.10
2022-09-04T23:32:56.836Z,78.10
2022-09-04T23:35:30.891Z,79.00
2022-09-04T23:38:07.054Z,79.00
2022-09-04T23:40:37.816Z,78.40
2022-09-04T23:43:07.764Z,77.90
2022-09-04T23:46:01.921Z,77.30
2022-09-04T23:48:28.807Z,77.50
2022-09-04T23:51:01.551Z,78.00
2022-09-04T23:53:36.458Z,78.00
2022-09-04T23:56:09.037Z,77.80
2022-09-04T23:58:54.479Z,78.30
